Avenue, Maryland
Current Conditions -  °F | °C
As of 10:51 PM on Thursday 18 Dec 2014 (Local Time) from K2W6 Reporting Station
Broken Clouds Broken Clouds  
Wind Chill: 32°   Ceiling: 11000
Heat Index: 36°   Visibility: 10mi
Dew Point: 23°   Wind: 5mph
Humidity: 60%   Direction: 310°NW
Pressure: 30.12"   Gusts: NA
Location:  38.26°N, 76.77°W
Report Text: K2W6 190351Z AUTO 31004KT 10SM BKN110 02/M05 A3012 RMK AO1
Loading
Personal Weather Stations






























Interactive Weather Map New forecast layout! Learn more

10-Day Weather Forecast

Advertisements
Track Severe Weather on mobile